sensor_id;sensor_type;location;lat;lon;timestamp;pressure;altitude;pressure_sealevel;temperature;humidity
1480;BME280;732;51.698;4.886;2023-03-01T00:02:05;103284.28;;;-3.11;100.00
1480;BME280;732;51.698;4.886;2023-03-01T00:04:33;103287.59;;;-3.04;100.00
1480;BME280;732;51.698;4.886;2023-03-01T00:07:02;103277.59;;;-3.00;100.00
1480;BME280;732;51.698;4.886;2023-03-01T00:09:31;103282.47;;;-3.12;100.00
1480;BME280;732;51.698;4.886;2023-03-01T00:12:00;103279.44;;;-3.17;100.00
1480;BME280;732;51.698;4.886;2023-03-01T00:14:28;103283.16;;;-2.96;100.00
1480;BME280;732;51.698;4.886;2023-03-01T00:16:57;103281.53;;;-3.04;100.00
1480;BME280;732;51.698;4.886;2023-03-01T00:19:27;103237.56;;;-3.24;100.00
1480;BME280;732;51.698;4.886;2023-03-01T00:21:56;103286.34;;;-2.98;100.00
1480;BME280;732;51.698;4.886;2023-03-01T00:24:24;103284.59;;;-3.08;100.00
1480;BME280;732;51.698;4.886;2023-03-01T00:26:53;103287.44;;;-3.14;100.00
1480;BME280;732;51.698;4.886;2023-03-01T00:29:23;103260.56;;;-3.34;100.00
1480;BME280;732;51.698;4.886;2023-03-01T00:31:52;103227.66;;;-3.55;100.00
1480;BME280;732;51.698;4.886;2023-03-01T00:34:21;103287.53;;;-3.31;100.00
1480;BME280;732;51.698;4.886;2023-03-01T00:36:50;103282.63;;;-3.19;100.00
1480;BME280;732;51.698;4.886;2023-03-01T00:39:19;103249.72;;;-3.40;100.00
1480;BME280;732;51.698;4.886;2023-03-01T00:41:47;103276.88;;;-3.17;100.00
1480;BME280;732;51.698;4.886;2023-03-01T00:44:16;103282.34;;;-3.22;100.00
1480;BME280;732;51.698;4.886;2023-03-01T00:46:45;103294.19;;;-3.33;100.00
1480;BME280;732;51.698;4.886;2023-03-01T00:49:14;103289.69;;;-3.44;100.00
1480;BME280;732;51.698;4.886;2023-03-01T00:51:42;103268.81;;;-3.64;100.00
1480;BME280;732;51.698;4.886;2023-03-01T00:54:12;103287.69;;;-3.55;100.00
1480;BME280;732;51.698;4.886;2023-03-01T00:56:41;103259.19;;;-3.83;100.00
1480;BME280;732;51.698;4.886;2023-03-01T00:59:09;103287.28;;;-3.85;100.00
1480;BME280;732;51.698;4.886;2023-03-01T01:01:39;103291.22;;;-3.88;100.00
1480;BME280;732;51.698;4.886;2023-03-01T01:04:11;103254.19;;;-4.08;100.00
1480;BME280;732;51.698;4.886;2023-03-01T01:06:42;103286.69;;;-4.00;100.00
1480;BME280;732;51.698;4.886;2023-03-01T01:09:15;103278.66;;;-3.94;100.00
1480;BME280;732;51.698;4.886;2023-03-01T01:11:47;103257.22;;;-4.12;100.00
1480;BME280;732;51.698;4.886;2023-03-01T01:14:18;103279.28;;;-3.88;100.00
1480;BME280;732;51.698;4.886;2023-03-01T01:16:48;103245.88;;;-4.05;100.00
1480;BME280;732;51.698;4.886;2023-03-01T01:19:16;103272.16;;;-3.82;100.00
1480;BME280;732;51.698;4.886;2023-03-01T01:21:45;103235.72;;;-4.04;100.00
1480;BME280;732;51.698;4.886;2023-03-01T01:24:16;103258.72;;;-3.88;100.00
1480;BME280;732;51.698;4.886;2023-03-01T01:26:48;103258.25;;;-3.92;100.00
1480;BME280;732;51.698;4.886;2023-03-01T01:29:18;103260.69;;;-3.85;100.00
1480;BME280;732;51.698;4.886;2023-03-01T01:31:46;103254.50;;;-3.87;100.00
1480;BME280;732;51.698;4.886;2023-03-01T01:34:18;103200.38;;;-4.32;100.00
1480;BME280;732;51.698;4.886;2023-03-01T01:36:49;103248.44;;;-3.96;100.00
1480;BME280;732;51.698;4.886;2023-03-01T01:39:19;103186.03;;;-4.30;100.00
1480;BME280;732;51.698;4.886;2023-03-01T01:41:48;103189.06;;;-4.25;100.00
1480;BME280;732;51.698;4.886;2023-03-01T01:44:20;103201.59;;;-4.03;100.00
1480;BME280;732;51.698;4.886;2023-03-01T01:46:53;103242.06;;;-3.74;100.00
1480;BME280;732;51.698;4.886;2023-03-01T01:49:29;103235.28;;;-3.82;100.00
1480;BME280;732;51.698;4.886;2023-03-01T01:52:08;103233.78;;;-3.89;100.00
1480;BME280;732;51.698;4.886;2023-03-01T01:54:44;103215.03;;;-3.96;100.00
1480;BME280;732;51.698;4.886;2023-03-01T01:57:19;103207.75;;;-3.92;100.00
1480;BME280;732;51.698;4.886;2023-03-01T01:59:57;103219.56;;;-3.85;100.00
1480;BME280;732;51.698;4.886;2023-03-01T02:02:27;103221.38;;;-4.02;100.00
1480;BME280;732;51.698;4.886;2023-03-01T02:05:05;103211.69;;;-3.95;100.00
1480;BME280;732;51.698;4.886;2023-03-01T02:07:39;103186.34;;;-4.10;100.00
1480;BME280;732;51.698;4.886;2023-03-01T02:10:10;103202.81;;;-4.08;100.00
1480;BME280;732;51.698;4.886;2023-03-01T02:12:39;103207.50;;;-4.12;100.00
1480;BME280;732;51.698;4.886;2023-03-01T02:15:09;103205.84;;;-4.29;100.00
1480;BME280;732;51.698;4.886;2023-03-01T02:17:38;103177.09;;;-4.50;100.00
1480;BME280;732;51.698;4.886;2023-03-01T02:20:18;103213.66;;;-4.36;100.00
1480;BME280;732;51.698;4.886;2023-03-01T02:22:52;103164.28;;;-4.59;100.00
1480;BME280;732;51.698;4.886;2023-03-01T02:25:38;103169.25;;;-4.60;100.00
1480;BME280;732;51.698;4.886;2023-03-01T02:28:24;103169.09;;;-4.70;100.00
1480;BME280;732;51.698;4.886;2023-03-01T02:30:53;103192.22;;;-4.53;100.00
1480;BME280;732;51.698;4.886;2023-03-01T02:33:40;103207.19;;;-4.32;100.00
1480;BME280;732;51.698;4.886;2023-03-01T02:36:13;103152.94;;;-4.61;100.00
1480;BME280;732;51.698;4.886;2023-03-01T02:38:43;103212.47;;;-4.31;100.00
1480;BME280;732;51.698;4.886;2023-03-01T02:41:16;103170.75;;;-4.54;100.00
1480;BME280;732;51.698;4.886;2023-03-01T02:43:47;103173.94;;;-4.48;100.00
1480;BME280;732;51.698;4.886;2023-03-01T02:46:22;103153.38;;;-4.56;100.00
1480;BME280;732;51.698;4.886;2023-03-01T02:48:54;103150.81;;;-4.56;100.00
1480;BME280;732;51.698;4.886;2023-03-01T02:51:44;103147.66;;;-4.62;100.00
1480;BME280;732;51.698;4.886;2023-03-01T02:54:21;103190.09;;;-4.49;100.00
1480;BME280;732;51.698;4.886;2023-03-01T02:56:53;103188.47;;;-4.40;100.00
1480;BME280;732;51.698;4.886;2023-03-01T02:59:29;103165.47;;;-4.47;100.00
1480;BME280;732;51.698;4.886;2023-03-01T03:02:01;103137.22;;;-4.72;100.00
1480;BME280;732;51.698;4.886;2023-03-01T03:04:29;103036.38;;;-5.23;100.00
1480;BME280;732;51.698;4.886;2023-03-01T03:06:58;103210.94;;;-4.20;100.00
1480;BME280;732;51.698;4.886;2023-03-01T03:09:26;103208.84;;;-4.24;100.00
1480;BME280;732;51.698;4.886;2023-03-01T03:11:56;103207.66;;;-4.19;100.00
1480;BME280;732;51.698;4.886;2023-03-01T03:14:26;103177.56;;;-4.37;100.00
1480;BME280;732;51.698;4.886;2023-03-01T03:16:55;103209.59;;;-4.17;100.00
1480;BME280;732;51.698;4.886;2023-03-01T03:19:23;103202.03;;;-4.07;100.00
1480;BME280;732;51.698;4.886;2023-03-01T03:21:52;103200.53;;;-4.05;100.00
1480;BME280;732;51.698;4.886;2023-03-01T03:24:20;103195.38;;;-4.13;100.00
1480;BME280;732;51.698;4.886;2023-03-01T03:26:49;103193.13;;;-4.10;100.00
1480;BME280;732;51.698;4.886;2023-03-01T03:29:17;103188.28;;;-4.24;100.00
1480;BME280;732;51.698;4.886;2023-03-01T03:31:47;103167.59;;;-4.43;100.00
1480;BME280;732;51.698;4.886;2023-03-01T03:34:15;103178.16;;;-4.31;100.00
1480;BME280;732;51.698;4.886;2023-03-01T03:36:45;103156.09;;;-4.63;100.00
1480;BME280;732;51.698;4.886;2023-03-01T03:39:14;103144.34;;;-4.70;100.00
1480;BME280;732;51.698;4.886;2023-03-01T03:41:42;103188.91;;;-4.44;100.00
1480;BME280;732;51.698;4.886;2023-03-01T03:44:10;103184.66;;;-4.52;100.00
1480;BME280;732;51.698;4.886;2023-03-01T03:46:39;103192.06;;;-4.55;100.00
1480;BME280;732;51.698;4.886;2023-03-01T03:49:11;103182.25;;;-4.59;100.00
1480;BME280;732;51.698;4.886;2023-03-01T03:51:40;103184.19;;;-4.65;100.00
1480;BME280;732;51.698;4.886;2023-03-01T03:54:08;103184.50;;;-4.62;100.00
1480;BME280;732;51.698;4.886;2023-03-01T03:56:37;103183.75;;;-4.61;100.00
1480;BME280;732;51.698;4.886;2023-03-01T03:59:07;103181.34;;;-4.59;100.00
1480;BME280;732;51.698;4.886;2023-03-01T04:01:38;103162.13;;;-4.71;100.00
1480;BME280;732;51.698;4.886;2023-03-01T04:04:06;103180.41;;;-4.60;100.00
1480;BME280;732;51.698;4.886;2023-03-01T04:06:36;103178.78;;;-4.68;100.00
1480;BME280;732;51.698;4.886;2023-03-01T04:09:05;103168.63;;;-4.75;100.00
1480;BME280;732;51.698;4.886;2023-03-01T04:11:33;103190.34;;;-4.71;100.00
1480;BME280;732;51.698;4.886;2023-03-01T04:14:01;103145.50;;;-5.01;100.00
1480;BME280;732;51.698;4.886;2023-03-01T04:16:31;103175.53;;;-4.91;100.00
1480;BME280;732;51.698;4.886;2023-03-01T04:19:00;103172.97;;;-4.91;100.00
1480;BME280;732;51.698;4.886;2023-03-01T04:21:28;103174.34;;;-4.86;100.00
1480;BME280;732;51.698;4.886;2023-03-01T04:23:58;103174.63;;;-5.00;100.00
1480;BME280;732;51.698;4.886;2023-03-01T04:26:26;103177.53;;;-4.88;100.00
1480;BME280;732;51.698;4.886;2023-03-01T04:28:55;103156.38;;;-4.94;100.00
1480;BME280;732;51.698;4.886;2023-03-01T04:31:24;103129.00;;;-5.20;100.00
1480;BME280;732;51.698;4.886;2023-03-01T04:33:54;103169.34;;;-5.02;100.00
1480;BME280;732;51.698;4.886;2023-03-01T04:36:25;103175.84;;;-4.88;100.00
1480;BME280;732;51.698;4.886;2023-03-01T04:38:55;103142.59;;;-5.12;100.00
1480;BME280;732;51.698;4.886;2023-03-01T04:41:25;103154.50;;;-5.13;100.00
1480;BME280;732;51.698;4.886;2023-03-01T04:43:54;103186.28;;;-4.86;100.00
1480;BME280;732;51.698;4.886;2023-03-01T04:46:22;103173.91;;;-4.82;100.00
1480;BME280;732;51.698;4.886;2023-03-01T04:48:52;103175.25;;;-4.77;100.00
1480;BME280;732;51.698;4.886;2023-03-01T04:51:20;103169.97;;;-4.78;100.00
1480;BME280;732;51.698;4.886;2023-03-01T04:53:49;103170.88;;;-4.86;100.00
1480;BME280;732;51.698;4.886;2023-03-01T04:56:18;103168.31;;;-4.86;100.00
1480;BME280;732;51.698;4.886;2023-03-01T04:58:48;103157.88;;;-4.88;100.00
1480;BME280;732;51.698;4.886;2023-03-01T05:01:25;103156.22;;;-4.96;100.00
1480;BME280;732;51.698;4.886;2023-03-01T05:03:54;103093.56;;;-5.15;100.00
1480;BME280;732;51.698;4.886;2023-03-01T05:06:22;103112.13;;;-5.01;100.00
1480;BME280;732;51.698;4.886;2023-03-01T05:08:51;103141.13;;;-4.93;100.00
1480;BME280;732;51.698;4.886;2023-03-01T05:11:19;103141.16;;;-4.76;100.00
1480;BME280;732;51.698;4.886;2023-03-01T05:13:49;103129.81;;;-4.69;100.00
1480;BME280;732;51.698;4.886;2023-03-01T05:16:22;103065.06;;;-5.10;100.00
1480;BME280;732;51.698;4.886;2023-03-01T05:18:50;103132.25;;;-4.79;100.00
1480;BME280;732;51.698;4.886;2023-03-01T05:21:19;103126.50;;;-4.77;100.00
1480;BME280;732;51.698;4.886;2023-03-01T05:23:47;103125.31;;;-4.72;100.00
1480;BME280;732;51.698;4.886;2023-03-01T05:26:17;103096.16;;;-4.89;100.00
1480;BME280;732;51.698;4.886;2023-03-01T05:29:07;103101.13;;;-4.82;100.00
1480;BME280;732;51.698;4.886;2023-03-01T05:31:36;103114.72;;;-4.75;100.00
1480;BME280;732;51.698;4.886;2023-03-01T05:34:05;103110.19;;;-4.69;100.00
1480;BME280;732;51.698;4.886;2023-03-01T05:36:33;103059.03;;;-5.02;100.00
1480;BME280;732;51.698;4.886;2023-03-01T05:39:02;103106.28;;;-4.65;100.00
1480;BME280;732;51.698;4.886;2023-03-01T05:41:30;103096.44;;;-4.69;100.00
1480;BME280;732;51.698;4.886;2023-03-01T05:43:59;103098.56;;;-4.65;100.00
1480;BME280;732;51.698;4.886;2023-03-01T05:46:29;103094.38;;;-4.73;100.00
1480;BME280;732;51.698;4.886;2023-03-01T05:48:58;103076.50;;;-4.98;100.00
1480;BME280;732;51.698;4.886;2023-03-01T05:51:27;103026.69;;;-5.25;100.00
1480;BME280;732;51.698;4.886;2023-03-01T05:53:55;103075.19;;;-4.85;100.00
1480;BME280;732;51.698;4.886;2023-03-01T05:56:24;103033.94;;;-5.21;100.00
1480;BME280;732;51.698;4.886;2023-03-01T05:58:52;103076.97;;;-4.84;100.00
1480;BME280;732;51.698;4.886;2023-03-01T06:01:21;103058.72;;;-5.05;100.00
1480;BME280;732;51.698;4.886;2023-03-01T06:03:51;103070.50;;;-4.89;100.00
1480;BME280;732;51.698;4.886;2023-03-01T06:06:20;103066.25;;;-4.80;100.00
1480;BME280;732;51.698;4.886;2023-03-01T06:08:48;103021.00;;;-5.23;100.00
1480;BME280;732;51.698;4.886;2023-03-01T06:11:18;103045.44;;;-5.09;100.00
1480;BME280;732;51.698;4.886;2023-03-01T06:13:47;103054.34;;;-5.06;100.00
1480;BME280;732;51.698;4.886;2023-03-01T06:16:15;103048.16;;;-5.08;100.00
1480;BME280;732;51.698;4.886;2023-03-01T06:18:44;103064.16;;;-5.02;100.00
1480;BME280;732;51.698;4.886;2023-03-01T06:21:15;103096.16;;;-4.89;100.00
1480;BME280;732;51.698;4.886;2023-03-01T06:23:44;103100.97;;;-4.84;100.00
1480;BME280;732;51.698;4.886;2023-03-01T06:26:12;103066.81;;;-5.26;100.00
1480;BME280;732;51.698;4.886;2023-03-01T06:28:41;103091.00;;;-5.07;100.00
1480;BME280;732;51.698;4.886;2023-03-01T06:31:09;103116.06;;;-4.96;100.00
1480;BME280;732;51.698;4.886;2023-03-01T06:33:38;103117.13;;;-4.93;100.00
1480;BME280;732;51.698;4.886;2023-03-01T06:36:08;103067.28;;;-5.21;100.00
1480;BME280;732;51.698;4.886;2023-03-01T06:38:38;103105.06;;;-4.94;100.00
1480;BME280;732;51.698;4.886;2023-03-01T06:41:07;103104.44;;;-5.01;100.00
1480;BME280;732;51.698;4.886;2023-03-01T06:43:36;103104.00;;;-4.97;100.00
1480;BME280;732;51.698;4.886;2023-03-01T06:46:05;103108.06;;;-4.99;100.00
1480;BME280;732;51.698;4.886;2023-03-01T06:48:34;103107.16;;;-4.99;100.00
1480;BME280;732;51.698;4.886;2023-03-01T06:51:03;103070.91;;;-5.11;100.00
1480;BME280;732;51.698;4.886;2023-03-01T06:53:32;103105.66;;;-4.80;100.00
1480;BME280;732;51.698;4.886;2023-03-01T06:56:02;103091.03;;;-4.89;100.00
1480;BME280;732;51.698;4.886;2023-03-01T06:58:30;103047.09;;;-5.10;100.00
1480;BME280;732;51.698;4.886;2023-03-01T07:00:59;103072.91;;;-4.91;100.00
1480;BME280;732;51.698;4.886;2023-03-01T07:03:27;103056.16;;;-4.87;100.00
1480;BME280;732;51.698;4.886;2023-03-01T07:05:56;103118.81;;;-4.43;100.00
1480;BME280;732;51.698;4.886;2023-03-01T07:08:24;103097.22;;;-4.53;100.00
1480;BME280;732;51.698;4.886;2023-03-01T07:10:55;103102.34;;;-4.45;100.00
1480;BME280;732;51.698;4.886;2023-03-01T07:13:25;103088.59;;;-4.54;100.00
1480;BME280;732;51.698;4.886;2023-03-01T07:15:53;103088.13;;;-4.41;100.00
1480;BME280;732;51.698;4.886;2023-03-01T07:18:22;103105.94;;;-4.26;100.00
1480;BME280;732;51.698;4.886;2023-03-01T07:20:51;103110.44;;;-4.15;100.00
1480;BME280;732;51.698;4.886;2023-03-01T07:23:19;103105.19;;;-4.08;100.00
1480;BME280;732;51.698;4.886;2023-03-01T07:25:52;103095.00;;;-3.89;100.00
1480;BME280;732;51.698;4.886;2023-03-01T07:28:22;103106.81;;;-3.64;100.00
1480;BME280;732;51.698;4.886;2023-03-01T07:30:53;103059.69;;;-3.73;100.00
1480;BME280;732;51.698;4.886;2023-03-01T07:33:22;103080.28;;;-3.46;100.00
1480;BME280;732;51.698;4.886;2023-03-01T07:35:56;103060.91;;;-3.42;100.00
1480;BME280;732;51.698;4.886;2023-03-01T07:38:26;103066.75;;;-3.35;100.00
1480;BME280;732;51.698;4.886;2023-03-01T07:40:58;103090.63;;;-3.27;100.00
1480;BME280;732;51.698;4.886;2023-03-01T07:43:29;103085.06;;;-3.13;100.00
1480;BME280;732;51.698;4.886;2023-03-01T07:46:00;103069.84;;;-3.20;100.00
1480;BME280;732;51.698;4.886;2023-03-01T07:48:29;103094.75;;;-3.11;100.00
1480;BME280;732;51.698;4.886;2023-03-01T07:50:58;103102.03;;;-3.15;100.00
1480;BME280;732;51.698;4.886;2023-03-01T07:53:28;103104.56;;;-3.07;100.00
1480;BME280;732;51.698;4.886;2023-03-01T07:56:02;103086.81;;;-3.04;100.00
1480;BME280;732;51.698;4.886;2023-03-01T07:58:33;103101.66;;;-2.82;100.00
1480;BME280;732;51.698;4.886;2023-03-01T08:01:04;103090.59;;;-2.81;100.00
1480;BME280;732;51.698;4.886;2023-03-01T08:03:33;103078.16;;;-2.95;100.00
1480;BME280;732;51.698;4.886;2023-03-01T08:06:02;103080.13;;;-2.93;100.00
1480;BME280;732;51.698;4.886;2023-03-01T08:08:32;103101.53;;;-2.65;100.00
1480;BME280;732;51.698;4.886;2023-03-01T08:11:03;103112.53;;;-2.58;100.00
1480;BME280;732;51.698;4.886;2023-03-01T08:13:32;103038.97;;;-2.83;100.00
1480;BME280;732;51.698;4.886;2023-03-01T08:16:05;103108.81;;;-2.33;100.00
1480;BME280;732;51.698;4.886;2023-03-01T08:18:34;103079.38;;;-2.45;100.00
1480;BME280;732;51.698;4.886;2023-03-01T08:21:04;103114.59;;;-2.17;100.00
1480;BME280;732;51.698;4.886;2023-03-01T08:23:33;103081.56;;;-2.21;100.00
1480;BME280;732;51.698;4.886;2023-03-01T08:26:07;103061.09;;;-2.19;100.00
1480;BME280;732;51.698;4.886;2023-03-01T08:28:36;103109.44;;;-1.78;100.00
1480;BME280;732;51.698;4.886;2023-03-01T08:31:16;103065.72;;;-1.86;100.00
1480;BME280;732;51.698;4.886;2023-03-01T08:33:46;103101.63;;;-1.59;100.00
1480;BME280;732;51.698;4.886;2023-03-01T08:36:18;103091.47;;;-1.48;100.00
1480;BME280;732;51.698;4.886;2023-03-01T08:38:48;103059.59;;;-1.48;100.00
1480;BME280;732;51.698;4.886;2023-03-01T08:41:17;103053.94;;;-1.34;100.00
1480;BME280;732;51.698;4.886;2023-03-01T08:43:45;103075.88;;;-0.99;100.00
1480;BME280;732;51.698;4.886;2023-03-01T08:46:15;103084.91;;;-0.74;100.00
1480;BME280;732;51.698;4.886;2023-03-01T08:48:43;103088.66;;;-0.60;100.00
1480;BME280;732;51.698;4.886;2023-03-01T08:51:15;103045.59;;;-0.60;100.00
1480;BME280;732;51.698;4.886;2023-03-01T08:53:46;103053.31;;;-0.40;100.00
1480;BME280;732;51.698;4.886;2023-03-01T08:56:15;103071.03;;;-0.13;100.00
1480;BME280;732;51.698;4.886;2023-03-01T08:58:45;103064.16;;;-0.02;100.00
1480;BME280;732;51.698;4.886;2023-03-01T09:01:17;103056.72;;;0.13;100.00
1480;BME280;732;51.698;4.886;2023-03-01T09:03:46;103056.25;;;0.40;100.00
1480;BME280;732;51.698;4.886;2023-03-01T09:06:15;103041.72;;;0.52;100.00
1480;BME280;732;51.698;4.886;2023-03-01T09:08:46;103030.47;;;0.63;100.00
1480;BME280;732;51.698;4.886;2023-03-01T09:11:17;103045.13;;;1.07;100.00
1480;BME280;732;51.698;4.886;2023-03-01T09:13:46;103016.06;;;1.11;100.00
1480;BME280;732;51.698;4.886;2023-03-01T09:16:19;103042.56;;;1.42;100.00
1480;BME280;732;51.698;4.886;2023-03-01T09:18:49;103027.56;;;1.49;100.00
1480;BME280;732;51.698;4.886;2023-03-01T09:21:21;103025.84;;;1.73;100.00
1480;BME280;732;51.698;4.886;2023-03-01T09:24:07;102972.88;;;1.58;100.00
1480;BME280;732;51.698;4.886;2023-03-01T09:26:39;103014.00;;;2.00;100.00
1480;BME280;732;51.698;4.886;2023-03-01T09:29:08;103002.81;;;2.12;100.00
1480;BME280;732;51.698;4.886;2023-03-01T09:31:39;102991.88;;;2.29;100.00
1480;BME280;732;51.698;4.886;2023-03-01T09:34:08;102993.59;;;2.53;100.00
1480;BME280;732;51.698;4.886;2023-03-01T09:36:36;102999.00;;;2.56;100.00
1480;BME280;732;51.698;4.886;2023-03-01T09:39:05;102957.84;;;2.62;100.00
1480;BME280;732;51.698;4.886;2023-03-01T09:41:48;102988.41;;;2.91;100.00
1480;BME280;732;51.698;4.886;2023-03-01T09:44:28;102943.97;;;2.75;100.00
1480;BME280;732;51.698;4.886;2023-03-01T09:47:01;102951.91;;;3.03;100.00
1480;BME280;732;51.698;4.886;2023-03-01T09:49:33;102968.41;;;3.29;100.00
1480;BME280;732;51.698;4.886;2023-03-01T09:52:17;102954.13;;;3.36;100.00
1480;BME280;732;51.698;4.886;2023-03-01T09:54:51;102967.88;;;3.61;100.00
1480;BME280;732;51.698;4.886;2023-03-01T09:57:33;102968.09;;;3.64;100.00
1480;BME280;732;51.698;4.886;2023-03-01T10:00:24;102976.28;;;3.83;100.00
1480;BME280;732;51.698;4.886;2023-03-01T10:03:05;102934.75;;;3.71;100.00
1480;BME280;732;51.698;4.886;2023-03-01T10:05:47;102937.50;;;3.88;100.00
1480;BME280;732;51.698;4.886;2023-03-01T10:08:34;102955.63;;;4.14;100.00
1480;BME280;732;51.698;4.886;2023-03-01T10:11:21;102959.72;;;4.23;100.00
1480;BME280;732;51.698;4.886;2023-03-01T10:13:58;102925.47;;;4.17;100.00
1480;BME280;732;51.698;4.886;2023-03-01T10:16:38;102925.75;;;4.22;100.00
1480;BME280;732;51.698;4.886;2023-03-01T10:19:14;102939.84;;;4.53;100.00
1480;BME280;732;51.698;4.886;2023-03-01T10:21:46;102966.28;;;4.74;100.00
1480;BME280;732;51.698;4.886;2023-03-01T10:24:17;102936.38;;;4.67;100.00
1480;BME280;732;51.698;4.886;2023-03-01T10:26:55;102946.69;;;4.95;100.00
1480;BME280;732;51.698;4.886;2023-03-01T10:29:27;102953.00;;;4.98;100.00
1480;BME280;732;51.698;4.886;2023-03-01T10:31:58;102935.81;;;5.02;100.00
1480;BME280;732;51.698;4.886;2023-03-01T10:34:31;102927.47;;;4.93;100.00
1480;BME280;732;51.698;4.886;2023-03-01T10:37:11;102906.16;;;5.00;100.00
1480;BME280;732;51.698;4.886;2023-03-01T10:39:57;102932.81;;;5.25;100.00
1480;BME280;732;51.698;4.886;2023-03-01T10:42:29;102912.84;;;5.25;100.00
1480;BME280;732;51.698;4.886;2023-03-01T10:44:58;102902.22;;;5.22;100.00
1480;BME280;732;51.698;4.886;2023-03-01T10:47:42;102920.00;;;5.44;100.00
1480;BME280;732;51.698;4.886;2023-03-01T10:50:21;102896.34;;;5.41;100.00
1480;BME280;732;51.698;4.886;2023-03-01T10:52:59;102916.22;;;5.70;100.00
1480;BME280;732;51.698;4.886;2023-03-01T10:55:33;102883.59;;;5.61;100.00
1480;BME280;732;51.698;4.886;2023-03-01T10:58:18;102868.88;;;5.47;100.00
1480;BME280;732;51.698;4.886;2023-03-01T11:00:50;102888.13;;;5.65;100.00
1480;BME280;732;51.698;4.886;2023-03-01T11:03:23;102908.50;;;5.87;100.00
1480;BME280;732;51.698;4.886;2023-03-01T11:06:00;102882.78;;;5.79;100.00
1480;BME280;732;51.698;4.886;2023-03-01T11:08:41;102899.84;;;6.04;100.00
1480;BME280;732;51.698;4.886;2023-03-01T11:11:26;102857.56;;;5.95;100.00
1480;BME280;732;51.698;4.886;2023-03-01T11:14:00;102860.59;;;6.03;100.00
1480;BME280;732;51.698;4.886;2023-03-01T11:16:47;102856.78;;;6.12;100.00
1480;BME280;732;51.698;4.886;2023-03-01T11:19:20;102845.38;;;5.96;100.00
1480;BME280;732;51.698;4.886;2023-03-01T11:21:58;102844.44;;;6.10;100.00
1480;BME280;732;51.698;4.886;2023-03-01T11:24:37;102863.44;;;6.23;100.00
1480;BME280;732;51.698;4.886;2023-03-01T11:27:21;102870.53;;;6.42;100.00
1480;BME280;732;51.698;4.886;2023-03-01T11:29:55;102839.16;;;6.42;100.00
1480;BME280;732;51.698;4.886;2023-03-01T11:32:31;102856.34;;;6.54;100.00
1480;BME280;732;51.698;4.886;2023-03-01T11:35:15;102841.19;;;6.31;100.00
1480;BME280;732;51.698;4.886;2023-03-01T11:37:59;102849.94;;;6.48;100.00
1480;BME280;732;51.698;4.886;2023-03-01T11:40:35;102849.78;;;6.63;100.00
1480;BME280;732;51.698;4.886;2023-03-01T11:43:15;102858.28;;;6.58;100.00
1480;BME280;732;51.698;4.886;2023-03-01T11:46:03;102829.78;;;6.63;100.00
1480;BME280;732;51.698;4.886;2023-03-01T11:48:46;102842.69;;;6.95;100.00
1480;BME280;732;51.698;4.886;2023-03-01T11:51:24;102844.63;;;6.99;100.00
1480;BME280;732;51.698;4.886;2023-03-01T11:54:07;102856.69;;;7.13;100.00
1480;BME280;732;51.698;4.886;2023-03-01T11:56:41;102861.13;;;7.16;100.00
1480;BME280;732;51.698;4.886;2023-03-01T11:59:38;102859.06;;;7.26;100.00
1480;BME280;732;51.698;4.886;2023-03-01T12:06:22;102856.06;;;7.36;100.00
1480;BME280;732;51.698;4.886;2023-03-01T12:09:17;102848.28;;;7.38;100.00
1480;BME280;732;51.698;4.886;2023-03-01T12:12:25;102835.13;;;7.36;100.00
1480;BME280;732;51.698;4.886;2023-03-01T12:15:50;102834.03;;;7.33;100.00
1480;BME280;732;51.698;4.886;2023-03-01T12:18:39;102847.44;;;7.39;100.00
1480;BME280;732;51.698;4.886;2023-03-01T12:21:26;102842.78;;;7.51;100.00
1480;BME280;732;51.698;4.886;2023-03-01T12:27:41;102823.28;;;7.64;100.00
1480;BME280;732;51.698;4.886;2023-03-01T12:30:26;102795.69;;;7.33;100.00
1480;BME280;732;51.698;4.886;2023-03-01T12:33:18;102795.94;;;7.57;100.00
1480;BME280;732;51.698;4.886;2023-03-01T12:36:15;102764.63;;;7.41;100.00
1480;BME280;732;51.698;4.886;2023-03-01T12:39:04;102819.34;;;7.54;99.39
1480;BME280;732;51.698;4.886;2023-03-01T12:41:47;102808.03;;;7.36;98.96
1480;BME280;732;51.698;4.886;2023-03-01T12:44:36;102774.63;;;7.30;100.00
1480;BME280;732;51.698;4.886;2023-03-01T12:50:04;102698.66;;;7.06;34.27
1480;BME280;732;51.698;4.886;2023-03-01T12:52:39;102699.00;;;7.01;34.65
1480;BME280;732;51.698;4.886;2023-03-01T12:55:29;102704.34;;;7.25;35.06
1480;BME280;732;51.698;4.886;2023-03-01T12:58:20;102702.75;;;7.23;35.79
1480;BME280;732;51.698;4.886;2023-03-01T13:01:22;102668.75;;;7.25;36.07
1480;BME280;732;51.698;4.886;2023-03-01T13:04:16;102696.81;;;7.66;35.55
1480;BME280;732;51.698;4.886;2023-03-01T13:07:02;102688.78;;;7.66;34.29
1480;BME280;732;51.698;4.886;2023-03-01T13:09:39;102683.19;;;7.58;33.92
1480;BME280;732;51.698;4.886;2023-03-01T13:12:51;102669.44;;;7.51;33.63
1480;BME280;732;51.698;4.886;2023-03-01T13:15:33;102668.84;;;7.59;34.31
1480;BME280;732;51.698;4.886;2023-03-01T13:18:11;102683.44;;;7.66;34.55
1480;BME280;732;51.698;4.886;2023-03-01T13:20:56;102680.06;;;7.64;34.04
1480;BME280;732;51.698;4.886;2023-03-01T13:23:30;102664.13;;;7.62;34.63
1480;BME280;732;51.698;4.886;2023-03-01T13:26:20;102665.72;;;7.65;34.46
1480;BME280;732;51.698;4.886;2023-03-01T13:28:55;102651.03;;;7.59;33.79
1480;BME280;732;51.698;4.886;2023-03-01T13:31:58;102668.03;;;7.70;33.91
1480;BME280;732;51.698;4.886;2023-03-01T13:34:45;102663.09;;;7.76;33.70
1480;BME280;732;51.698;4.886;2023-03-01T13:37:29;102649.09;;;7.73;33.69
1480;BME280;732;51.698;4.886;2023-03-01T13:42:50;102646.31;;;7.63;32.82
1480;BME280;732;51.698;4.886;2023-03-01T13:45:39;102664.06;;;7.87;32.63
1480;BME280;732;51.698;4.886;2023-03-01T13:48:15;102657.84;;;7.86;33.60
1480;BME280;732;51.698;4.886;2023-03-01T13:50:49;102642.44;;;7.90;34.17
1480;BME280;732;51.698;4.886;2023-03-01T13:53:21;102628.09;;;7.91;33.87
1480;BME280;732;51.698;4.886;2023-03-01T13:55:57;102645.13;;;8.01;33.38
1480;BME280;732;51.698;4.886;2023-03-01T13:58:29;102636.75;;;8.06;32.94
1480;BME280;732;51.698;4.886;2023-03-01T14:01:00;102612.09;;;8.02;32.57
1480;BME280;732;51.698;4.886;2023-03-01T14:03:30;102632.38;;;8.16;32.94